sensor_id;sensor_type;location;lat;lon;timestamp;P1;durP1;ratioP1;P2;durP2;ratioP2
4466;SDS011;2246;42.664;23.278;2023-04-16T00:01:23;14.27;;;5.10;;
4466;SDS011;2246;42.664;23.278;2023-04-16T00:03:49;28.50;;;10.32;;
4466;SDS011;2246;42.664;23.278;2023-04-16T00:06:15;22.13;;;8.52;;
4466;SDS011;2246;42.664;23.278;2023-04-16T00:08:41;17.25;;;6.25;;
4466;SDS011;2246;42.664;23.278;2023-04-16T00:11:07;15.05;;;4.93;;
4466;SDS011;2246;42.664;23.278;2023-04-16T00:13:33;8.55;;;4.32;;
4466;SDS011;2246;42.664;23.278;2023-04-16T00:16:00;9.82;;;4.07;;
4466;SDS011;2246;42.664;23.278;2023-04-16T00:18:26;8.75;;;3.90;;
4466;SDS011;2246;42.664;23.278;2023-04-16T00:20:52;11.35;;;4.35;;
4466;SDS011;2246;42.664;23.278;2023-04-16T00:23:18;8.63;;;4.00;;
4466;SDS011;2246;42.664;23.278;2023-04-16T00:25:45;8.73;;;3.85;;
4466;SDS011;2246;42.664;23.278;2023-04-16T00:28:11;12.27;;;4.75;;
4466;SDS011;2246;42.664;23.278;2023-04-16T00:40:20;4.93;;;2.55;;
4466;SDS011;2246;42.664;23.278;2023-04-16T00:42:46;8.55;;;2.90;;
4466;SDS011;2246;42.664;23.278;2023-04-16T00:45:12;14.25;;;2.20;;
4466;SDS011;2246;42.664;23.278;2023-04-16T00:47:38;11.07;;;2.58;;
4466;SDS011;2246;42.664;23.278;2023-04-16T00:50:04;6.00;;;2.60;;
4466;SDS011;2246;42.664;23.278;2023-04-16T00:52:31;5.30;;;2.05;;
4466;SDS011;2246;42.664;23.278;2023-04-16T00:54:57;5.90;;;2.15;;
4466;SDS011;2246;42.664;23.278;2023-04-16T00:57:23;4.95;;;1.83;;
4466;SDS011;2246;42.664;23.278;2023-04-16T00:59:50;5.90;;;2.60;;
4466;SDS011;2246;42.664;23.278;2023-04-16T01:02:17;8.00;;;2.30;;
4466;SDS011;2246;42.664;23.278;2023-04-16T01:04:43;12.05;;;2.45;;
4466;SDS011;2246;42.664;23.278;2023-04-16T01:07:09;7.53;;;2.78;;
4466;SDS011;2246;42.664;23.278;2023-04-16T01:09:36;7.28;;;2.60;;
4466;SDS011;2246;42.664;23.278;2023-04-16T01:12:02;5.35;;;2.15;;
4466;SDS011;2246;42.664;23.278;2023-04-16T01:14:28;5.40;;;2.45;;
4466;SDS011;2246;42.664;23.278;2023-04-16T01:16:55;5.50;;;2.40;;
4466;SDS011;2246;42.664;23.278;2023-04-16T01:19:21;7.18;;;2.50;;
4466;SDS011;2246;42.664;23.278;2023-04-16T01:21:47;6.63;;;2.45;;
4466;SDS011;2246;42.664;23.278;2023-04-16T01:24:13;5.65;;;2.75;;
4466;SDS011;2246;42.664;23.278;2023-04-16T01:26:39;4.85;;;2.55;;
4466;SDS011;2246;42.664;23.278;2023-04-16T01:29:05;9.98;;;2.95;;
4466;SDS011;2246;42.664;23.278;2023-04-16T01:31:32;6.53;;;2.47;;
4466;SDS011;2246;42.664;23.278;2023-04-16T01:33:58;10.95;;;2.95;;
4466;SDS011;2246;42.664;23.278;2023-04-16T01:36:24;7.75;;;3.17;;
4466;SDS011;2246;42.664;23.278;2023-04-16T01:38:50;5.03;;;2.75;;
4466;SDS011;2246;42.664;23.278;2023-04-16T01:41:16;8.80;;;2.75;;
4466;SDS011;2246;42.664;23.278;2023-04-16T01:43:42;11.15;;;4.65;;
4466;SDS011;2246;42.664;23.278;2023-04-16T01:48:34;16.23;;;3.45;;
4466;SDS011;2246;42.664;23.278;2023-04-16T01:51:01;12.40;;;3.25;;
4466;SDS011;2246;42.664;23.278;2023-04-16T01:53:28;7.60;;;3.83;;
4466;SDS011;2246;42.664;23.278;2023-04-16T01:55:55;7.68;;;3.13;;
4466;SDS011;2246;42.664;23.278;2023-04-16T01:58:21;4.82;;;2.30;;
4466;SDS011;2246;42.664;23.278;2023-04-16T02:00:47;4.85;;;2.58;;
4466;SDS011;2246;42.664;23.278;2023-04-16T02:03:13;6.22;;;2.42;;
4466;SDS011;2246;42.664;23.278;2023-04-16T02:05:41;5.45;;;2.55;;
4466;SDS011;2246;42.664;23.278;2023-04-16T02:08:07;8.07;;;2.60;;
4466;SDS011;2246;42.664;23.278;2023-04-16T02:10:33;10.68;;;2.95;;
4466;SDS011;2246;42.664;23.278;2023-04-16T02:12:59;7.45;;;2.70;;
4466;SDS011;2246;42.664;23.278;2023-04-16T02:15:26;8.85;;;3.13;;
4466;SDS011;2246;42.664;23.278;2023-04-16T02:17:52;12.68;;;6.32;;
4466;SDS011;2246;42.664;23.278;2023-04-16T02:20:20;11.77;;;4.57;;
4466;SDS011;2246;42.664;23.278;2023-04-16T02:22:46;10.68;;;4.70;;
4466;SDS011;2246;42.664;23.278;2023-04-16T02:25:12;6.95;;;3.63;;
4466;SDS011;2246;42.664;23.278;2023-04-16T02:27:39;11.43;;;4.15;;
4466;SDS011;2246;42.664;23.278;2023-04-16T02:30:05;8.10;;;3.95;;
4466;SDS011;2246;42.664;23.278;2023-04-16T02:32:31;8.77;;;3.80;;
4466;SDS011;2246;42.664;23.278;2023-04-16T02:34:57;10.90;;;4.00;;
4466;SDS011;2246;42.664;23.278;2023-04-16T02:37:23;11.75;;;4.50;;
4466;SDS011;2246;42.664;23.278;2023-04-16T02:39:50;17.38;;;6.63;;
4466;SDS011;2246;42.664;23.278;2023-04-16T02:42:17;38.03;;;15.43;;
4466;SDS011;2246;42.664;23.278;2023-04-16T02:44:43;15.23;;;6.63;;
4466;SDS011;2246;42.664;23.278;2023-04-16T02:47:09;8.02;;;4.22;;
4466;SDS011;2246;42.664;23.278;2023-04-16T02:49:35;9.88;;;5.15;;
4466;SDS011;2246;42.664;23.278;2023-04-16T02:52:01;12.10;;;4.82;;
4466;SDS011;2246;42.664;23.278;2023-04-16T02:54:27;7.43;;;3.85;;
4466;SDS011;2246;42.664;23.278;2023-04-16T02:56:53;9.13;;;3.85;;
4466;SDS011;2246;42.664;23.278;2023-04-16T02:59:19;10.90;;;3.67;;
4466;SDS011;2246;42.664;23.278;2023-04-16T03:01:45;9.65;;;4.13;;
4466;SDS011;2246;42.664;23.278;2023-04-16T03:04:11;9.18;;;3.50;;
4466;SDS011;2246;42.664;23.278;2023-04-16T03:06:38;10.32;;;3.88;;
4466;SDS011;2246;42.664;23.278;2023-04-16T03:09:04;9.75;;;3.70;;
4466;SDS011;2246;42.664;23.278;2023-04-16T03:11:30;8.98;;;3.17;;
4466;SDS011;2246;42.664;23.278;2023-04-16T03:13:56;10.15;;;3.42;;
4466;SDS011;2246;42.664;23.278;2023-04-16T03:16:22;11.13;;;4.72;;
4466;SDS011;2246;42.664;23.278;2023-04-16T03:18:48;7.95;;;4.15;;
4466;SDS011;2246;42.664;23.278;2023-04-16T03:21:14;5.95;;;3.15;;
4466;SDS011;2246;42.664;23.278;2023-04-16T03:23:40;5.63;;;2.95;;
4466;SDS011;2246;42.664;23.278;2023-04-16T03:26:06;12.52;;;3.45;;
4466;SDS011;2246;42.664;23.278;2023-04-16T03:28:33;9.40;;;3.40;;
4466;SDS011;2246;42.664;23.278;2023-04-16T03:30:59;7.88;;;3.45;;
4466;SDS011;2246;42.664;23.278;2023-04-16T03:33:25;8.73;;;3.08;;
4466;SDS011;2246;42.664;23.278;2023-04-16T03:35:54;6.70;;;2.92;;
4466;SDS011;2246;42.664;23.278;2023-04-16T03:38:21;7.32;;;3.05;;
4466;SDS011;2246;42.664;23.278;2023-04-16T03:40:47;8.20;;;3.03;;
4466;SDS011;2246;42.664;23.278;2023-04-16T03:43:13;5.68;;;2.50;;
4466;SDS011;2246;42.664;23.278;2023-04-16T03:45:43;8.38;;;3.30;;
4466;SDS011;2246;42.664;23.278;2023-04-16T03:48:09;7.28;;;3.40;;
4466;SDS011;2246;42.664;23.278;2023-04-16T03:50:35;11.57;;;3.55;;
4466;SDS011;2246;42.664;23.278;2023-04-16T03:53:01;7.93;;;3.55;;
4466;SDS011;2246;42.664;23.278;2023-04-16T03:55:27;7.72;;;3.60;;
4466;SDS011;2246;42.664;23.278;2023-04-16T03:57:53;8.40;;;4.05;;
4466;SDS011;2246;42.664;23.278;2023-04-16T04:00:20;7.75;;;2.83;;
4466;SDS011;2246;42.664;23.278;2023-04-16T04:02:46;7.45;;;2.90;;
4466;SDS011;2246;42.664;23.278;2023-04-16T04:05:12;8.02;;;3.42;;
4466;SDS011;2246;42.664;23.278;2023-04-16T04:07:38;7.88;;;3.63;;
4466;SDS011;2246;42.664;23.278;2023-04-16T04:10:04;8.75;;;3.72;;
4466;SDS011;2246;42.664;23.278;2023-04-16T04:12:30;9.35;;;3.90;;
4466;SDS011;2246;42.664;23.278;2023-04-16T04:14:56;9.68;;;3.88;;
4466;SDS011;2246;42.664;23.278;2023-04-16T04:17:22;11.05;;;3.83;;
4466;SDS011;2246;42.664;23.278;2023-04-16T04:19:48;8.82;;;4.15;;
4466;SDS011;2246;42.664;23.278;2023-04-16T04:22:16;11.02;;;4.45;;
4466;SDS011;2246;42.664;23.278;2023-04-16T04:24:42;9.50;;;3.65;;
4466;SDS011;2246;42.664;23.278;2023-04-16T04:27:08;10.70;;;4.00;;
4466;SDS011;2246;42.664;23.278;2023-04-16T04:29:34;8.25;;;3.70;;
4466;SDS011;2246;42.664;23.278;2023-04-16T04:32:00;10.50;;;4.03;;
4466;SDS011;2246;42.664;23.278;2023-04-16T04:34:26;7.97;;;3.75;;
4466;SDS011;2246;42.664;23.278;2023-04-16T04:36:52;7.95;;;3.65;;
4466;SDS011;2246;42.664;23.278;2023-04-16T04:39:18;13.05;;;5.75;;
4466;SDS011;2246;42.664;23.278;2023-04-16T04:41:45;16.47;;;5.50;;
4466;SDS011;2246;42.664;23.278;2023-04-16T04:44:11;8.57;;;4.40;;
4466;SDS011;2246;42.664;23.278;2023-04-16T04:46:38;9.32;;;4.65;;
4466;SDS011;2246;42.664;23.278;2023-04-16T04:49:04;15.65;;;4.57;;
4466;SDS011;2246;42.664;23.278;2023-04-16T04:51:31;10.05;;;4.22;;
4466;SDS011;2246;42.664;23.278;2023-04-16T04:53:57;13.00;;;5.35;;
4466;SDS011;2246;42.664;23.278;2023-04-16T04:56:23;12.90;;;4.30;;
4466;SDS011;2246;42.664;23.278;2023-04-16T04:58:49;12.98;;;4.50;;
4466;SDS011;2246;42.664;23.278;2023-04-16T05:01:15;10.80;;;4.65;;
4466;SDS011;2246;42.664;23.278;2023-04-16T05:03:41;9.38;;;4.90;;
4466;SDS011;2246;42.664;23.278;2023-04-16T05:06:07;11.18;;;4.05;;
4466;SDS011;2246;42.664;23.278;2023-04-16T05:08:33;14.02;;;4.35;;
4466;SDS011;2246;42.664;23.278;2023-04-16T05:11:00;7.90;;;4.00;;
4466;SDS011;2246;42.664;23.278;2023-04-16T05:13:26;8.65;;;4.28;;
4466;SDS011;2246;42.664;23.278;2023-04-16T05:15:52;11.68;;;3.95;;
4466;SDS011;2246;42.664;23.278;2023-04-16T05:18:18;11.65;;;4.00;;
4466;SDS011;2246;42.664;23.278;2023-04-16T05:20:44;12.13;;;4.03;;
4466;SDS011;2246;42.664;23.278;2023-04-16T05:23:10;10.85;;;5.40;;
4466;SDS011;2246;42.664;23.278;2023-04-16T05:25:37;12.40;;;4.97;;
4466;SDS011;2246;42.664;23.278;2023-04-16T05:28:03;12.32;;;4.95;;
4466;SDS011;2246;42.664;23.278;2023-04-16T05:30:29;12.75;;;5.10;;
4466;SDS011;2246;42.664;23.278;2023-04-16T05:32:55;12.75;;;4.07;;
4466;SDS011;2246;42.664;23.278;2023-04-16T05:35:21;15.63;;;4.70;;
4466;SDS011;2246;42.664;23.278;2023-04-16T05:37:47;11.55;;;4.50;;
4466;SDS011;2246;42.664;23.278;2023-04-16T05:40:13;10.48;;;4.70;;
4466;SDS011;2246;42.664;23.278;2023-04-16T05:42:40;10.70;;;4.28;;
4466;SDS011;2246;42.664;23.278;2023-04-16T05:45:06;12.27;;;4.85;;
4466;SDS011;2246;42.664;23.278;2023-04-16T05:47:32;15.27;;;5.10;;
4466;SDS011;2246;42.664;23.278;2023-04-16T05:49:58;14.70;;;4.75;;
4466;SDS011;2246;42.664;23.278;2023-04-16T05:52:24;10.38;;;5.07;;
4466;SDS011;2246;42.664;23.278;2023-04-16T05:54:50;11.40;;;4.93;;
4466;SDS011;2246;42.664;23.278;2023-04-16T05:57:16;11.10;;;5.05;;
4466;SDS011;2246;42.664;23.278;2023-04-16T05:59:42;12.43;;;5.20;;
4466;SDS011;2246;42.664;23.278;2023-04-16T06:02:08;12.38;;;5.20;;
4466;SDS011;2246;42.664;23.278;2023-04-16T06:04:34;19.77;;;4.75;;
4466;SDS011;2246;42.664;23.278;2023-04-16T06:07:01;12.27;;;4.93;;
4466;SDS011;2246;42.664;23.278;2023-04-16T06:09:28;13.35;;;4.45;;
4466;SDS011;2246;42.664;23.278;2023-04-16T06:11:54;12.18;;;5.45;;
4466;SDS011;2246;42.664;23.278;2023-04-16T06:14:21;12.37;;;4.60;;
4466;SDS011;2246;42.664;23.278;2023-04-16T06:16:47;13.05;;;5.63;;
4466;SDS011;2246;42.664;23.278;2023-04-16T06:19:13;15.80;;;5.38;;
4466;SDS011;2246;42.664;23.278;2023-04-16T06:21:40;13.10;;;5.32;;
4466;SDS011;2246;42.664;23.278;2023-04-16T06:24:06;14.00;;;5.22;;
4466;SDS011;2246;42.664;23.278;2023-04-16T06:26:32;14.98;;;5.80;;
4466;SDS011;2246;42.664;23.278;2023-04-16T06:28:58;12.85;;;6.38;;
4466;SDS011;2246;42.664;23.278;2023-04-16T06:31:24;16.75;;;5.93;;
4466;SDS011;2246;42.664;23.278;2023-04-16T06:33:50;11.88;;;5.10;;
4466;SDS011;2246;42.664;23.278;2023-04-16T06:36:16;16.38;;;7.00;;
4466;SDS011;2246;42.664;23.278;2023-04-16T06:38:42;21.13;;;7.22;;
4466;SDS011;2246;42.664;23.278;2023-04-16T06:41:08;18.05;;;7.78;;
4466;SDS011;2246;42.664;23.278;2023-04-16T06:43:34;13.80;;;6.70;;
4466;SDS011;2246;42.664;23.278;2023-04-16T06:46:00;19.10;;;8.02;;
4466;SDS011;2246;42.664;23.278;2023-04-16T06:48:26;18.15;;;7.50;;
4466;SDS011;2246;42.664;23.278;2023-04-16T06:50:53;17.05;;;7.00;;
4466;SDS011;2246;42.664;23.278;2023-04-16T06:53:20;13.52;;;6.53;;
4466;SDS011;2246;42.664;23.278;2023-04-16T06:55:46;17.50;;;6.72;;
4466;SDS011;2246;42.664;23.278;2023-04-16T06:58:12;22.48;;;7.40;;
4466;SDS011;2246;42.664;23.278;2023-04-16T07:00:38;18.10;;;6.93;;
4466;SDS011;2246;42.664;23.278;2023-04-16T07:03:04;17.70;;;6.32;;
4466;SDS011;2246;42.664;23.278;2023-04-16T07:05:31;16.70;;;6.57;;
4466;SDS011;2246;42.664;23.278;2023-04-16T07:07:57;14.10;;;5.65;;
4466;SDS011;2246;42.664;23.278;2023-04-16T07:10:23;12.43;;;5.82;;
4466;SDS011;2246;42.664;23.278;2023-04-16T07:12:49;15.77;;;6.75;;
4466;SDS011;2246;42.664;23.278;2023-04-16T07:15:16;12.90;;;5.47;;
4466;SDS011;2246;42.664;23.278;2023-04-16T07:17:42;12.05;;;5.28;;
4466;SDS011;2246;42.664;23.278;2023-04-16T07:20:08;15.82;;;5.60;;
4466;SDS011;2246;42.664;23.278;2023-04-16T07:22:34;13.40;;;5.20;;
4466;SDS011;2246;42.664;23.278;2023-04-16T07:25:00;11.40;;;5.40;;
4466;SDS011;2246;42.664;23.278;2023-04-16T07:27:26;12.95;;;5.32;;
4466;SDS011;2246;42.664;23.278;2023-04-16T07:29:52;11.25;;;5.60;;
4466;SDS011;2246;42.664;23.278;2023-04-16T07:32:20;12.77;;;5.23;;
4466;SDS011;2246;42.664;23.278;2023-04-16T07:34:46;12.83;;;5.00;;
4466;SDS011;2246;42.664;23.278;2023-04-16T07:37:12;11.93;;;6.10;;
4466;SDS011;2246;42.664;23.278;2023-04-16T07:39:38;14.15;;;5.25;;
4466;SDS011;2246;42.664;23.278;2023-04-16T07:42:04;11.73;;;5.10;;
4466;SDS011;2246;42.664;23.278;2023-04-16T07:44:31;15.00;;;4.75;;
4466;SDS011;2246;42.664;23.278;2023-04-16T07:46:57;13.27;;;4.68;;
4466;SDS011;2246;42.664;23.278;2023-04-16T07:49:23;8.48;;;4.47;;
4466;SDS011;2246;42.664;23.278;2023-04-16T07:51:49;14.00;;;6.00;;
4466;SDS011;2246;42.664;23.278;2023-04-16T07:54:15;18.52;;;6.60;;
4466;SDS011;2246;42.664;23.278;2023-04-16T07:56:41;16.38;;;6.22;;
4466;SDS011;2246;42.664;23.278;2023-04-16T07:59:07;13.20;;;4.85;;
4466;SDS011;2246;42.664;23.278;2023-04-16T08:01:33;11.57;;;4.85;;
4466;SDS011;2246;42.664;23.278;2023-04-16T08:03:59;16.27;;;6.82;;
4466;SDS011;2246;42.664;23.278;2023-04-16T08:06:25;10.40;;;4.47;;
4466;SDS011;2246;42.664;23.278;2023-04-16T08:08:51;12.00;;;4.75;;
4466;SDS011;2246;42.664;23.278;2023-04-16T08:11:17;11.07;;;4.47;;
4466;SDS011;2246;42.664;23.278;2023-04-16T08:13:43;11.18;;;4.45;;
4466;SDS011;2246;42.664;23.278;2023-04-16T08:16:10;16.13;;;4.85;;
4466;SDS011;2246;42.664;23.278;2023-04-16T08:18:36;8.73;;;3.83;;
4466;SDS011;2246;42.664;23.278;2023-04-16T08:21:02;10.52;;;4.45;;
4466;SDS011;2246;42.664;23.278;2023-04-16T08:23:28;9.70;;;4.20;;
4466;SDS011;2246;42.664;23.278;2023-04-16T08:25:54;10.15;;;3.67;;
4466;SDS011;2246;42.664;23.278;2023-04-16T08:28:20;8.20;;;3.53;;
4466;SDS011;2246;42.664;23.278;2023-04-16T08:30:46;15.45;;;4.13;;
4466;SDS011;2246;42.664;23.278;2023-04-16T08:33:12;8.30;;;3.25;;
4466;SDS011;2246;42.664;23.278;2023-04-16T08:35:38;14.52;;;3.22;;
4466;SDS011;2246;42.664;23.278;2023-04-16T08:38:05;10.05;;;3.28;;
4466;SDS011;2246;42.664;23.278;2023-04-16T08:40:31;8.40;;;3.30;;
4466;SDS011;2246;42.664;23.278;2023-04-16T08:42:59;7.32;;;3.33;;
4466;SDS011;2246;42.664;23.278;2023-04-16T08:45:27;10.93;;;3.58;;
4466;SDS011;2246;42.664;23.278;2023-04-16T08:47:53;9.10;;;3.20;;
4466;SDS011;2246;42.664;23.278;2023-04-16T08:50:23;7.18;;;3.22;;
4466;SDS011;2246;42.664;23.278;2023-04-16T08:55:18;6.47;;;3.05;;
4466;SDS011;2246;42.664;23.278;2023-04-16T08:57:46;4.50;;;2.70;;
4466;SDS011;2246;42.664;23.278;2023-04-16T09:00:18;4.22;;;2.53;;
4466;SDS011;2246;42.664;23.278;2023-04-16T09:02:44;8.88;;;3.03;;
4466;SDS011;2246;42.664;23.278;2023-04-16T09:05:13;3.67;;;2.17;;
4466;SDS011;2246;42.664;23.278;2023-04-16T09:13:22;7.00;;;2.78;;
4466;SDS011;2246;42.664;23.278;2023-04-16T09:15:57;5.03;;;2.33;;
4466;SDS011;2246;42.664;23.278;2023-04-16T09:18:23;8.52;;;3.00;;
4466;SDS011;2246;42.664;23.278;2023-04-16T09:20:50;8.55;;;2.88;;
4466;SDS011;2246;42.664;23.278;2023-04-16T09:23:16;4.95;;;2.40;;
4466;SDS011;2246;42.664;23.278;2023-04-16T09:25:42;8.13;;;2.60;;
4466;SDS011;2246;42.664;23.278;2023-04-16T09:28:36;7.65;;;2.92;;
4466;SDS011;2246;42.664;23.278;2023-04-16T09:34:04;5.22;;;2.10;;
4466;SDS011;2246;42.664;23.278;2023-04-16T09:36:30;8.80;;;2.28;;
4466;SDS011;2246;42.664;23.278;2023-04-16T09:38:59;6.55;;;2.60;;
4466;SDS011;2246;42.664;23.278;2023-04-16T09:41:26;7.95;;;2.13;;
4466;SDS011;2246;42.664;23.278;2023-04-16T09:44:02;6.25;;;2.58;;
4466;SDS011;2246;42.664;23.278;2023-04-16T09:47:02;6.00;;;1.90;;
4466;SDS011;2246;42.664;23.278;2023-04-16T09:49:21;7.32;;;2.80;;
4466;SDS011;2246;42.664;23.278;2023-04-16T09:51:47;10.48;;;4.05;;
4466;SDS011;2246;42.664;23.278;2023-04-16T09:54:17;18.17;;;5.55;;
4466;SDS011;2246;42.664;23.278;2023-04-16T09:59:16;12.55;;;2.65;;
4466;SDS011;2246;42.664;23.278;2023-04-16T10:01:42;5.68;;;2.42;;
4466;SDS011;2246;42.664;23.278;2023-04-16T10:04:11;12.35;;;2.10;;
4466;SDS011;2246;42.664;23.278;2023-04-16T10:06:37;4.70;;;1.67;;
4466;SDS011;2246;42.664;23.278;2023-04-16T10:09:05;4.70;;;2.30;;
4466;SDS011;2246;42.664;23.278;2023-04-16T10:11:32;7.10;;;2.60;;
4466;SDS011;2246;42.664;23.278;2023-04-16T10:13:59;10.35;;;3.83;;
4466;SDS011;2246;42.664;23.278;2023-04-16T10:16:25;4.93;;;2.22;;
4466;SDS011;2246;42.664;23.278;2023-04-16T10:18:51;7.18;;;1.95;;
4466;SDS011;2246;42.664;23.278;2023-04-16T10:21:18;10.77;;;2.70;;
4466;SDS011;2246;42.664;23.278;2023-04-16T10:23:44;4.55;;;2.28;;
4466;SDS011;2246;42.664;23.278;2023-04-16T10:26:11;7.47;;;2.80;;
4466;SDS011;2246;42.664;23.278;2023-04-16T10:28:38;6.43;;;2.22;;
4466;SDS011;2246;42.664;23.278;2023-04-16T10:31:06;7.63;;;2.17;;
4466;SDS011;2246;42.664;23.278;2023-04-16T10:33:38;5.82;;;2.50;;
4466;SDS011;2246;42.664;23.278;2023-04-16T10:38:34;7.70;;;2.75;;
4466;SDS011;2246;42.664;23.278;2023-04-16T10:41:02;6.50;;;2.70;;
4466;SDS011;2246;42.664;23.278;2023-04-16T10:43:29;4.80;;;2.23;;
4466;SDS011;2246;42.664;23.278;2023-04-16T10:45:55;3.78;;;2.10;;
4466;SDS011;2246;42.664;23.278;2023-04-16T10:48:25;5.07;;;2.10;;
4466;SDS011;2246;42.664;23.278;2023-04-16T10:50:57;2.75;;;1.80;;
4466;SDS011;2246;42.664;23.278;2023-04-16T10:53:24;9.18;;;2.40;;
4466;SDS011;2246;42.664;23.278;2023-04-16T10:58:33;7.20;;;2.88;;
4466;SDS011;2246;42.664;23.278;2023-04-16T11:03:32;5.60;;;1.77;;
4466;SDS011;2246;42.664;23.278;2023-04-16T11:08:37;6.07;;;2.17;;
4466;SDS011;2246;42.664;23.278;2023-04-16T11:11:04;6.28;;;2.25;;
4466;SDS011;2246;42.664;23.278;2023-04-16T11:13:30;5.85;;;2.20;;
4466;SDS011;2246;42.664;23.278;2023-04-16T11:15:57;8.18;;;2.90;;
4466;SDS011;2246;42.664;23.278;2023-04-16T11:18:23;7.40;;;2.00;;
4466;SDS011;2246;42.664;23.278;2023-04-16T11:20:51;7.85;;;2.22;;
4466;SDS011;2246;42.664;23.278;2023-04-16T11:23:17;5.57;;;2.47;;
4466;SDS011;2246;42.664;23.278;2023-04-16T11:25:43;7.90;;;2.38;;
4466;SDS011;2246;42.664;23.278;2023-04-16T11:28:09;13.30;;;5.22;;
4466;SDS011;2246;42.664;23.278;2023-04-16T11:30:36;11.52;;;3.00;;
4466;SDS011;2246;42.664;23.278;2023-04-16T11:33:06;16.98;;;5.63;;
4466;SDS011;2246;42.664;23.278;2023-04-16T11:35:33;9.75;;;2.42;;
4466;SDS011;2246;42.664;23.278;2023-04-16T11:37:59;9.57;;;2.70;;
4466;SDS011;2246;42.664;23.278;2023-04-16T11:40:28;4.30;;;2.40;;
4466;SDS011;2246;42.664;23.278;2023-04-16T11:43:00;7.35;;;2.22;;
4466;SDS011;2246;42.664;23.278;2023-04-16T11:45:27;12.13;;;2.75;;
4466;SDS011;2246;42.664;23.278;2023-04-16T11:47:53;7.45;;;2.38;;
4466;SDS011;2246;42.664;23.278;2023-04-16T11:50:25;6.63;;;3.10;;
4466;SDS011;2246;42.664;23.278;2023-04-16T11:52:52;5.47;;;2.78;;
4466;SDS011;2246;42.664;23.278;2023-04-16T11:55:18;8.18;;;2.70;;
4466;SDS011;2246;42.664;23.278;2023-04-16T11:57:45;4.57;;;2.03;;
4466;SDS011;2246;42.664;23.278;2023-04-16T12:00:11;8.07;;;2.92;;
4466;SDS011;2246;42.664;23.278;2023-04-16T12:07:54;9.88;;;2.25;;
4466;SDS011;2246;42.664;23.278;2023-04-16T12:10:20;4.72;;;2.20;;
4466;SDS011;2246;42.664;23.278;2023-04-16T12:12:46;4.47;;;1.88;;
4466;SDS011;2246;42.664;23.278;2023-04-16T12:15:12;6.70;;;2.28;;
4466;SDS011;2246;42.664;23.278;2023-04-16T12:17:38;4.68;;;2.00;;
4466;SDS011;2246;42.664;23.278;2023-04-16T12:20:09;6.72;;;1.88;;
4466;SDS011;2246;42.664;23.278;2023-04-16T12:22:36;5.28;;;1.98;;
4466;SDS011;2246;42.664;23.278;2023-04-16T12:25:12;5.20;;;2.27;;
4466;SDS011;2246;42.664;23.278;2023-04-16T12:27:48;5.82;;;2.20;;
4466;SDS011;2246;42.664;23.278;2023-04-16T12:30:18;9.88;;;1.98;;
4466;SDS011;2246;42.664;23.278;2023-04-16T12:32:45;13.73;;;2.88;;
4466;SDS011;2246;42.664;23.278;2023-04-16T12:35:11;11.07;;;2.42;;
4466;SDS011;2246;42.664;23.278;2023-04-16T12:37:38;10.55;;;2.20;;
4466;SDS011;2246;42.664;23.278;2023-04-16T12:40:05;5.75;;;2.10;;
4466;SDS011;2246;42.664;23.278;2023-04-16T12:42:31;6.10;;;2.13;;
4466;SDS011;2246;42.664;23.278;2023-04-16T12:45:04;5.43;;;1.98;;
4466;SDS011;2246;42.664;23.278;2023-04-16T12:47:31;5.03;;;2.17;;
4466;SDS011;2246;42.664;23.278;2023-04-16T12:49:57;8.15;;;1.90;;
4466;SDS011;2246;42.664;23.278;2023-04-16T12:52:24;7.28;;;2.47;;
4466;SDS011;2246;42.664;23.278;2023-04-16T12:54:50;6.45;;;2.53;;
4466;SDS011;2246;42.664;23.278;2023-04-16T12:57:17;6.28;;;2.35;;
4466;SDS011;2246;42.664;23.278;2023-04-16T12:59:43;2.80;;;1.70;;
4466;SDS011;2246;42.664;23.278;2023-04-16T13:02:11;4.25;;;2.00;;
4466;SDS011;2246;42.664;23.278;2023-04-16T13:04:37;6.60;;;2.60;;
4466;SDS011;2246;42.664;23.278;2023-04-16T13:07:03;5.70;;;2.00;;
4466;SDS011;2246;42.664;23.278;2023-04-16T13:09:29;6.25;;;1.80;;
4466;SDS011;2246;42.664;23.278;2023-04-16T13:11:55;5.43;;;2.20;;
4466;SDS011;2246;42.664;23.278;2023-04-16T13:14:21;6.97;;;2.30;;
4466;SDS011;2246;42.664;23.278;2023-04-16T13:16:47;7.68;;;2.75;;
4466;SDS011;2246;42.664;23.278;2023-04-16T13:19:13;3.75;;;1.80;;
4466;SDS011;2246;42.664;23.278;2023-04-16T13:21:40;4.68;;;1.80;;
4466;SDS011;2246;42.664;23.278;2023-04-16T13:24:06;6.28;;;1.90;;
4466;SDS011;2246;42.664;23.278;2023-04-16T13:26:32;4.03;;;1.75;;
4466;SDS011;2246;42.664;23.278;2023-04-16T13:28:58;5.72;;;2.20;;
4466;SDS011;2246;42.664;23.278;2023-04-16T13:31:24;5.70;;;2.00;;
4466;SDS011;2246;42.664;23.278;2023-04-16T13:33:50;4.32;;;1.42;;
4466;SDS011;2246;42.664;23.278;2023-04-16T13:36:16;4.60;;;1.60;;
4466;SDS011;2246;42.664;23.278;2023-04-16T13:38:42;5.70;;;1.70;;
4466;SDS011;2246;42.664;23.278;2023-04-16T13:41:08;3.85;;;1.58;;
4466;SDS011;2246;42.664;23.278;2023-04-16T13:43:35;8.50;;;1.98;;
4466;SDS011;2246;42.664;23.278;2023-04-16T13:46:01;8.10;;;2.13;;
4466;SDS011;2246;42.664;23.278;2023-04-16T13:48:28;8.68;;;2.17;;
4466;SDS011;2246;42.664;23.278;2023-04-16T13:50:54;8.75;;;2.05;;
4466;SDS011;2246;42.664;23.278;2023-04-16T13:53:20;9.07;;;2.47;;
4466;SDS011;2246;42.664;23.278;2023-04-16T13:55:46;9.18;;;2.90;;
4466;SDS011;2246;42.664;23.278;2023-04-16T13:58:13;4.55;;;2.63;;
4466;SDS011;2246;42.664;23.278;2023-04-16T14:00:40;7.28;;;3.17;;
4466;SDS011;2246;42.664;23.278;2023-04-16T14:03:06;5.90;;;2.47;;
4466;SDS011;2246;42.664;23.278;2023-04-16T14:05:32;8.70;;;2.72;;
4466;SDS011;2246;42.664;23.278;2023-04-16T14:07:58;6.93;;;2.40;;
4466;SDS011;2246;42.664;23.278;2023-04-16T14:10:25;7.13;;;2.60;;
4466;SDS011;2246;42.664;23.278;2023-04-16T14:12:51;4.65;;;2.30;;
4466;SDS011;2246;42.664;23.278;2023-04-16T14:15:17;10.35;;;3.22;;
4466;SDS011;2246;42.664;23.278;2023-04-16T14:17:43;4.90;;;2.38;;
4466;SDS011;2246;42.664;23.278;2023-04-16T14:20:09;5.20;;;3.08;;
4466;SDS011;2246;42.664;23.278;2023-04-16T14:22:36;5.20;;;2.58;;
4466;SDS011;2246;42.664;23.278;2023-04-16T14:25:02;7.00;;;3.10;;
4466;SDS011;2246;42.664;23.278;2023-04-16T14:27:28;6.32;;;2.67;;
4466;SDS011;2246;42.664;23.278;2023-04-16T14:29:54;7.18;;;3.17;;
4466;SDS011;2246;42.664;23.278;2023-04-16T14:32:20;3.83;;;2.58;;
4466;SDS011;2246;42.664;23.278;2023-04-16T14:34:47;7.90;;;2.67;;
4466;SDS011;2246;42.664;23.278;2023-04-16T14:37:14;5.80;;;2.63;;
4466;SDS011;2246;42.664;23.278;2023-04-16T14:39:40;5.05;;;1.90;;
4466;SDS011;2246;42.664;23.278;2023-04-16T14:42:06;6.78;;;2.35;;
4466;SDS011;2246;42.664;23.278;2023-04-16T14:44:32;5.65;;;2.90;;
4466;SDS011;2246;42.664;23.278;2023-04-16T14:46:58;6.60;;;2.97;;
4466;SDS011;2246;42.664;23.278;2023-04-16T14:49:25;5.72;;;2.60;;
4466;SDS011;2246;42.664;23.278;2023-04-16T14:51:51;5.90;;;2.40;;
4466;SDS011;2246;42.664;23.278;2023-04-16T14:54:17;8.02;;;2.78;;
4466;SDS011;2246;42.664;23.278;2023-04-16T14:56:44;4.40;;;2.65;;
4466;SDS011;2246;42.664;23.278;2023-04-16T14:59:11;6.60;;;2.70;;
4466;SDS011;2246;42.664;23.278;2023-04-16T15:01:37;6.32;;;2.63;;
4466;SDS011;2246;42.664;23.278;2023-04-16T15:04:04;5.97;;;2.65;;
4466;SDS011;2246;42.664;23.278;2023-04-16T15:06:31;8.02;;;2.63;;
4466;SDS011;2246;42.664;23.278;2023-04-16T15:08:57;7.47;;;2.30;;
4466;SDS011;2246;42.664;23.278;2023-04-16T15:11:23;6.20;;;3.13;;
4466;SDS011;2246;42.664;23.278;2023-04-16T15:13:49;7.03;;;3.28;;
4466;SDS011;2246;42.664;23.278;2023-04-16T15:16:15;12.43;;;4.10;;
4466;SDS011;2246;42.664;23.278;2023-04-16T15:18:42;8.90;;;4.20;;
4466;SDS011;2246;42.664;23.278;2023-04-16T15:21:08;8.38;;;3.58;;
4466;SDS011;2246;42.664;23.278;2023-04-16T15:23:34;7.95;;;3.80;;
4466;SDS011;2246;42.664;23.278;2023-04-16T15:26:00;19.02;;;7.38;;
4466;SDS011;2246;42.664;23.278;2023-04-16T15:28:26;13.02;;;5.90;;
4466;SDS011;2246;42.664;23.278;2023-04-16T15:30:52;12.23;;;4.13;;
4466;SDS011;2246;42.664;23.278;2023-04-16T15:33:21;6.65;;;3.05;;